Time;durP1;ratioP1;P1;durP2;ratioP2;P2;SDS_P1;SDS_P2;PMS_P1;PMS_P2;Temp;Humidity;BMP_temperature;BMP_pressure;BME280_temperature;BME280_humidity;BME280_pressure;Samples;Min_cycle;Max_cycle;Signal;HPM_P1;HPM_P2
2023/09/23 00:01:45;;;;;;;2.17;1.42;;;19.20;87.10;;;;;;5015537;28;20136;-31
2023/09/23 00:04:12;;;;;;;2.22;1.30;;;;;;;;;;5015498;28;20146;-30
2023/09/23 00:06:38;;;;;;;1.33;1.10;;;18.50;86.60;;;;;;5015427;28;20133;-31
2023/09/23 00:09:07;;;;;;;1.60;1.25;;;;;;;;;;5015084;28;20133;-30
2023/09/23 00:11:35;;;;;;;1.83;1.30;;;19.20;82.90;;;;;;5015564;28;20045;-30
2023/09/23 00:14:05;;;;;;;1.75;1.25;;;19.40;70.50;;;;;;5015354;28;20145;-30
2023/09/23 00:16:33;;;;;;;1.70;1.38;;;;;;;;;;5015432;28;20057;-31
2023/09/23 00:19:01;;;;;;;1.45;1.20;;;19.10;73.80;;;;;;5014981;28;20042;-31
2023/09/23 00:21:28;;;;;;;1.63;1.20;;;;;;;;;;5015123;28;20143;-31
2023/09/23 00:23:57;;;;;;;2.17;1.35;;;19.10;87.30;;;;;;5015625;28;20128;-31
2023/09/23 00:26:26;;;;;;;1.90;1.30;;;19.70;87.30;;;;;;5015339;28;20462;-28
2023/09/23 00:28:53;;;;;;;1.50;1.20;;;;;;;;;;5014620;28;20054;-29
2023/09/23 00:31:22;;;;;;;1.50;1.25;;;19.70;87.20;;;;;;5015005;28;20101;-29
2023/09/23 00:33:49;;;;;;;2.47;1.30;;;19.30;87.00;;;;;;5015003;28;20049;-29
2023/09/23 00:36:16;;;;;;;1.70;1.30;;;18.80;87.20;;;;;;5014698;28;20046;-28
2023/09/23 00:38:43;;;;;;;1.85;1.40;;;;;;;;;;5014741;28;20050;-29
2023/09/23 00:41:10;;;;;;;1.65;1.27;;;19.90;87.30;;;;;;5014620;28;20120;-28
2023/09/23 00:43:37;;;;;;;1.30;1.10;;;19.50;87.20;;;;;;5014764;28;20646;-28
2023/09/23 00:46:05;;;;;;;1.20;1.10;;;;;;;;;;5014877;28;20053;-29
2023/09/23 00:48:36;;;;;;;1.20;1.00;;;19.80;83.70;;;;;;5014359;28;20065;-29
2023/09/23 00:51:03;;;;;;;1.40;1.08;;;19.80;79.60;;;;;;5015147;28;20454;-29
2023/09/23 00:53:30;;;;;;;1.30;1.10;;;19.70;87.30;;;;;;5015708;28;20076;-29
2023/09/23 00:55:57;;;;;;;1.70;1.25;;;19.00;77.80;;;;;;5019863;28;20046;-29
2023/09/23 00:58:26;;;;;;;1.75;1.20;;;19.00;87.20;;;;;;5014728;28;20472;-28
2023/09/23 01:00:54;;;;;;;1.90;1.20;;;19.10;87.20;;;;;;5014289;28;20136;-29
2023/09/23 01:03:22;;;;;;;2.10;1.20;;;;;;;;;;5014327;28;20127;-31
2023/09/23 01:06:00;;;;;;;1.42;1.00;;;18.20;86.50;;;;;;5014295;28;20124;-29
2023/09/23 01:08:28;;;;;;;1.20;1.00;;;;;;;;;;5014250;28;20050;-31
2023/09/23 01:10:54;;;;;;;1.52;1.08;;;19.00;87.20;;;;;;5013876;28;20053;-29
2023/09/23 01:13:23;;;;;;;1.83;1.20;;;19.20;87.50;;;;;;5014194;28;20137;-29
2023/09/23 01:15:51;;;;;;;1.52;1.20;;;19.50;84.20;;;;;;5014090;28;20054;-29
2023/09/23 01:18:18;;;;;;;1.02;0.93;;;;;;;;;;5014409;28;20415;-29
2023/09/23 01:20:48;;;;;;;2.08;1.45;;;18.20;86.50;;;;;;5014187;28;20046;-28
2023/09/23 01:23:16;;;;;;;1.65;1.10;;;19.20;87.20;;;;;;5013868;28;20137;-29
2023/09/23 01:25:43;;;;;;;1.40;1.20;;;19.30;86.80;;;;;;5014013;28;20052;-29
2023/09/23 01:28:13;;;;;;;1.73;1.40;;;19.10;85.40;;;;;;5013771;28;20136;-29
2023/09/23 01:30:40;;;;;;;1.05;0.95;;;19.30;86.90;;;;;;5014139;28;20076;-29
2023/09/23 01:33:07;;;;;;;1.30;1.00;;;19.50;86.70;;;;;;5013788;28;20495;-28
2023/09/23 01:35:34;;;;;;;1.00;0.90;;;19.20;87.10;;;;;;5013553;28;20510;-29
2023/09/23 01:38:04;;;;;;;1.20;1.10;;;;;;;;;;5012829;28;20503;-31
2023/09/23 01:40:33;;;;;;;1.63;1.10;;;19.30;70.30;;;;;;5013436;28;20081;-32
2023/09/23 01:42:59;;;;;;;1.30;1.15;;;19.00;86.80;;;;;;5013192;28;20046;-31
2023/09/23 01:45:26;;;;;;;1.45;1.13;;;19.70;87.00;;;;;;5013937;28;20124;-31
2023/09/23 01:47:56;;;;;;;1.50;1.20;;;;;;;;;;5013591;28;20518;-31
2023/09/23 01:50:23;;;;;;;1.08;0.98;;;;;;;;;;5013274;28;20510;-31
2023/09/23 01:52:50;;;;;;;1.40;1.13;;;18.40;86.20;;;;;;5013557;28;20049;-32
2023/09/23 01:55:17;;;;;;;1.15;1.05;;;19.00;84.10;;;;;;5029003;28;20125;-31
2023/09/23 01:57:47;;;;;;;1.27;1.00;;;18.30;86.60;;;;;;5032415;28;20153;-31
2023/09/23 02:00:18;;;;;;;1.23;1.10;;;19.00;86.70;;;;;;5013074;28;20046;-32
2023/09/23 02:02:44;;;;;;;1.38;1.08;;;19.20;86.80;;;;;;5013418;28;20092;-32
2023/09/23 02:05:11;;;;;;;1.00;0.80;;;;;;;;;;5012921;28;20129;-31
2023/09/23 02:07:39;;;;;;;1.40;1.00;;;19.10;86.40;;;;;;5012511;28;20129;-31
2023/09/23 02:10:09;;;;;;;1.60;1.20;;;19.00;86.20;;;;;;5013492;28;20050;-32
2023/09/23 02:12:35;;;;;;;1.92;1.20;;;19.10;70.10;;;;;;5013107;28;20129;-32
2023/09/23 02:15:06;;;;;;;1.38;1.00;;;19.40;86.80;;;;;;5012939;28;20127;-32
2023/09/23 02:17:36;;;;;;;1.00;0.90;;;19.20;86.50;;;;;;5013009;28;20054;-31
2023/09/23 02:20:05;;;;;;;1.60;1.02;;;18.80;86.20;;;;;;5012703;28;20422;-31
2023/09/23 02:22:32;;;;;;;1.33;1.10;;;19.70;86.30;;;;;;5012643;28;20064;-31
2023/09/23 02:24:59;;;;;;;1.25;1.02;;;19.10;86.40;;;;;;5012942;28;20050;-31
2023/09/23 02:27:26;;;;;;;1.10;1.00;;;;;;;;;;5012873;28;20140;-31
2023/09/23 02:29:53;;;;;;;1.35;1.10;;;18.80;86.50;;;;;;5012672;28;20056;-32
2023/09/23 02:32:21;;;;;;;1.00;0.90;;;20.20;87.60;;;;;;5012797;28;20068;-32
2023/09/23 02:34:47;;;;;;;1.20;1.00;;;19.10;87.00;;;;;;5012639;28;20133;-31
2023/09/23 02:37:14;;;;;;;2.65;1.10;;;;;;;;;;5012454;28;20133;-31
2023/09/23 02:39:41;;;;;;;1.70;1.10;;;19.20;87.00;;;;;;5012219;28;20129;-32
2023/09/23 02:42:10;;;;;;;1.05;0.95;;;;;;;;;;5012484;28;20041;-31
2023/09/23 02:44:37;;;;;;;1.15;0.95;;;18.60;82.50;;;;;;5012498;28;20546;-31
2023/09/23 02:47:04;;;;;;;1.10;1.00;;;19.10;81.10;;;;;;5012484;28;20081;-32
2023/09/23 02:49:33;;;;;;;1.02;0.90;;;19.40;72.30;;;;;;5011290;28;20119;-31
2023/09/23 02:51:59;;;;;;;0.90;0.80;;;19.00;86.80;;;;;;5012659;28;20406;-32
2023/09/23 02:54:26;;;;;;;1.00;0.90;;;19.70;87.00;;;;;;5015133;28;20069;-32
2023/09/23 02:56:53;;;;;;;1.20;1.00;;;18.50;82.10;;;;;;5012337;28;20049;-32
2023/09/23 02:59:26;;;;;;;1.05;0.90;;;;;;;;;;5012239;28;20060;-32
2023/09/23 03:01:53;;;;;;;2.63;1.00;;;;;;;;;;5012262;28;20046;-31
2023/09/23 03:04:23;;;;;;;1.50;1.10;;;19.00;86.70;;;;;;5012541;28;20055;-32
2023/09/23 03:06:55;;;;;;;1.65;1.00;;;20.40;86.80;;;;;;5012220;28;20419;-31
2023/09/23 03:09:23;;;;;;;1.17;0.90;;;19.10;86.40;;;;;;5012112;28;20419;-32
2023/09/23 03:11:53;;;;;;;1.20;1.10;;;19.50;72.70;;;;;;5011940;28;20133;-32
2023/09/23 03:14:23;;;;;;;1.38;0.98;;;18.80;86.40;;;;;;5006990;28;20039;-31
2023/09/23 03:16:53;;;;;;;1.00;0.90;;;19.10;70.10;;;;;;4992587;28;20057;-32
2023/09/23 03:19:24;;;;;;;1.77;0.93;;;19.40;83.30;;;;;;4992731;28;20092;-31
2023/09/23 03:21:56;;;;;;;1.00;0.90;;;19.20;70.20;;;;;;4992623;28;20050;-32
2023/09/23 03:24:25;;;;;;;1.55;0.90;;;;;;;;;;4992396;28;20411;-31
2023/09/23 03:26:53;;;;;;;1.50;0.95;;;19.10;87.00;;;;;;4996895;28;20046;-32
2023/09/23 03:29:22;;;;;;;1.05;0.90;;;;;;;;;;5011404;28;20104;-32
2023/09/23 03:31:48;;;;;;;1.20;0.90;;;19.40;81.30;;;;;;5012108;28;20415;-32
2023/09/23 03:34:15;;;;;;;0.77;0.75;;;18.80;86.40;;;;;;5012247;28;20058;-32
2023/09/23 03:36:42;;;;;;;1.00;0.90;;;19.10;74.60;;;;;;5011675;28;20478;-32
2023/09/23 03:39:10;;;;;;;1.58;1.00;;;19.10;86.70;;;;;;5011486;28;20054;-31
2023/09/23 03:41:38;;;;;;;1.48;1.02;;;19.00;86.80;;;;;;5011844;28;20396;-32
2023/09/23 03:44:05;;;;;;;0.90;0.80;;;18.40;77.20;;;;;;5011697;28;20049;-31
2023/09/23 03:46:31;;;;;;;1.77;1.00;;;19.40;86.90;;;;;;5011758;28;20046;-32
2023/09/23 03:49:00;;;;;;;1.83;0.70;;;;;;;;;;5011667;28;20129;-30
2023/09/23 03:51:26;;;;;;;2.72;0.85;;;18.80;71.90;;;;;;5011736;28;20050;-31
2023/09/23 03:53:53;;;;;;;1.70;1.10;;;;;;;;;;5011701;28;20125;-32
2023/09/23 03:56:24;;;;;;;1.33;1.00;;;19.10;70.10;;;;;;5011901;28;20146;-32
2023/09/23 03:58:51;;;;;;;0.90;0.77;;;19.20;71.10;;;;;;5011895;28;20056;-31
2023/09/23 04:01:19;;;;;;;1.40;0.88;;;19.40;87.20;;;;;;5011237;28;20153;-31
2023/09/23 04:03:46;;;;;;;1.25;0.95;;;18.00;81.10;;;;;;5011926;28;20584;-32
2023/09/23 04:06:13;;;;;;;1.05;0.80;;;;;;;;;;5011674;28;20133;-31
2023/09/23 04:08:40;;;;;;;1.48;1.00;;;19.00;86.70;;;;;;5011749;28;20092;-32
2023/09/23 04:11:08;;;;;;;1.17;1.00;;;19.20;80.90;;;;;;5011832;28;20050;-31
2023/09/23 04:13:37;;;;;;;1.58;0.90;;;19.40;78.30;;;;;;5011380;28;20554;-32
2023/09/23 04:16:05;;;;;;;1.30;0.82;;;19.10;86.70;;;;;;5011742;28;20146;-32
2023/09/23 04:18:32;;;;;;;1.17;1.00;;;19.10;86.80;;;;;;5011544;28;20093;-32
2023/09/23 04:21:00;;;;;;;1.58;1.00;;;19.70;87.00;;;;;;5011093;28;20137;-31
2023/09/23 04:23:27;;;;;;;1.15;0.93;;;;;;;;;;5025859;28;20461;-30
2023/09/23 04:25:54;;;;;;;1.33;0.95;;;18.80;86.60;;;;;;5031409;28;20149;-32
2023/09/23 04:28:22;;;;;;;2.05;1.00;;;20.00;87.20;;;;;;5031147;28;20132;-32
2023/09/23 04:30:53;;;;;;;0.90;0.80;;;18.70;86.50;;;;;;5018280;28;20499;-32
2023/09/23 04:33:22;;;;;;;1.48;1.00;;;;;;;;;;5012538;28;20060;-32
2023/09/23 04:35:48;;;;;;;1.90;1.05;;;18.80;86.60;;;;;;5014681;28;20050;-31
2023/09/23 04:38:15;;;;;;;1.30;1.10;;;19.50;87.20;;;;;;5014810;28;20050;-32
2023/09/23 04:40:42;;;;;;;1.63;1.27;;;19.30;80.60;;;;;;5014719;28;20056;-32
2023/09/23 04:43:10;;;;;;;1.35;1.02;;;19.20;73.20;;;;;;5015070;28;20084;-32
2023/09/23 04:45:36;;;;;;;1.60;1.15;;;18.50;86.60;;;;;;5014302;28;20053;-31
2023/09/23 04:48:06;;;;;;;1.70;1.23;;;18.90;81.30;;;;;;5014508;28;20060;-32
2023/09/23 04:50:33;;;;;;;1.17;1.08;;;18.80;84.60;;;;;;5014158;28;20045;-31
2023/09/23 04:53:00;;;;;;;1.27;0.90;;;18.30;86.30;;;;;;5014112;28;20049;-32
2023/09/23 04:55:29;;;;;;;1.20;1.10;;;19.30;76.90;;;;;;5015946;28;20054;-32
2023/09/23 04:57:56;;;;;;;1.52;1.20;;;19.20;72.60;;;;;;5014054;28;20046;-32
2023/09/23 05:00:23;;;;;;;2.17;1.30;;;19.00;77.60;;;;;;5014125;28;20046;-31
2023/09/23 05:02:51;;;;;;;1.60;1.33;;;;;;;;;;5013297;28;20510;-31
2023/09/23 05:05:20;;;;;;;1.10;1.00;;;19.20;86.80;;;;;;5013839;28;20046;-32
2023/09/23 05:07:47;;;;;;;1.23;1.05;;;20.20;87.10;;;;;;5013424;28;20045;-31
2023/09/23 05:10:14;;;;;;;1.80;1.50;;;19.30;86.90;;;;;;5012034;28;20422;-32
2023/09/23 05:12:41;;;;;;;2.45;1.50;;;;;;;;;;5013869;28;20555;-31
2023/09/23 05:15:10;;;;;;;1.60;1.30;;;19.30;87.10;;;;;;5013603;28;20133;-32
2023/09/23 05:17:37;;;;;;;2.95;1.40;;;19.00;69.80;;;;;;5014023;28;20192;-30
2023/09/23 05:20:16;;;;;;;2.47;1.40;;;19.30;87.20;;;;;;5013088;28;20133;-32
2023/09/23 05:22:44;;;;;;;1.42;1.30;;;19.50;87.30;;;;;;5013824;28;20126;-32
2023/09/23 05:25:11;;;;;;;1.70;1.50;;;19.40;87.20;;;;;;5013699;28;20121;-32
2023/09/23 05:27:38;;;;;;;2.30;1.48;;;18.60;86.40;;;;;;5013317;28;20122;-31
2023/09/23 05:30:08;;;;;;;1.73;1.40;;;19.00;69.80;;;;;;5010725;28;20049;-31
2023/09/23 05:32:35;;;;;;;1.83;1.33;;;19.20;86.90;;;;;;5013827;28;20072;-32
2023/09/23 05:35:02;;;;;;;2.13;1.40;;;;;;;;;;5012969;28;20050;-31
2023/09/23 05:37:29;;;;;;;2.08;1.58;;;19.40;87.00;;;;;;5012191;28;20125;-32
2023/09/23 05:39:57;;;;;;;1.90;1.50;;;18.30;78.20;;;;;;5012276;28;20473;-32
2023/09/23 05:42:25;;;;;;;1.95;1.50;;;19.30;87.20;;;;;;4993154;28;20124;-31
2023/09/23 05:44:52;;;;;;;1.98;1.67;;;19.70;87.00;;;;;;5011653;28;20418;-31
2023/09/23 05:47:19;;;;;;;2.53;1.60;;;19.10;86.80;;;;;;5013303;28;20129;-32
2023/09/23 05:49:46;;;;;;;1.83;1.40;;;;;;;;;;5013271;28;20053;-30
2023/09/23 05:52:14;;;;;;;1.70;1.48;;;19.20;87.10;;;;;;5015155;28;20129;-31
2023/09/23 05:54:42;;;;;;;2.10;1.60;;;19.30;85.50;;;;;;5014243;28;20060;-31
2023/09/23 05:57:10;;;;;;;2.25;1.73;;;19.10;83.10;;;;;;5013245;28;20041;-32
2023/09/23 05:59:36;;;;;;;2.17;1.60;;;18.70;86.80;;;;;;5010307;28;20076;-32
2023/09/23 06:02:08;;;;;;;2.22;1.80;;;20.00;87.40;;;;;;5012988;28;20128;-32
2023/09/23 06:04:35;;;;;;;2.38;1.77;;;19.00;86.90;;;;;;5013044;28;20052;-32
2023/09/23 06:07:02;;;;;;;3.35;1.90;;;18.80;86.80;;;;;;5012422;28;20125;-32
2023/09/23 06:09:29;;;;;;;1.90;1.70;;;;;;;;;;5012682;28;20132;-31
2023/09/23 06:11:55;;;;;;;2.40;2.05;;;18.50;86.50;;;;;;5013488;28;20050;-32
2023/09/23 06:14:25;;;;;;;3.90;2.13;;;18.90;69.70;;;;;;5013458;28;20046;-30
2023/09/23 06:16:51;;;;;;;2.28;1.90;;;18.40;86.30;;;;;;5012941;28;20086;-31
2023/09/23 06:19:18;;;;;;;2.65;2.20;;;19.30;86.60;;;;;;5013071;28;20129;-31
2023/09/23 06:21:45;;;;;;;2.90;2.20;;;18.00;72.70;;;;;;5013029;28;20132;-31
2023/09/23 06:24:12;;;;;;;3.30;2.22;;;;;;;;;;5012812;28;20045;-31
2023/09/23 06:26:39;;;;;;;2.75;2.28;;;;;;;;;;5012877;28;20136;-31
2023/09/23 06:29:06;;;;;;;4.38;2.67;;;18.70;86.40;;;;;;5012728;28;20158;-31
2023/09/23 06:31:34;;;;;;;2.85;2.45;;;19.00;86.50;;;;;;5012934;28;20586;-31
2023/09/23 06:34:01;;;;;;;3.13;2.35;;;18.70;86.40;;;;;;5013003;28;20132;-31
2023/09/23 06:36:27;;;;;;;3.60;2.47;;;17.90;83.60;;;;;;5012244;28;20049;-31
2023/09/23 06:38:54;;;;;;;3.53;2.90;;;19.00;86.80;;;;;;5012400;28;20142;-31
2023/09/23 06:41:21;;;;;;;3.53;2.90;;;19.20;86.60;;;;;;5012408;28;20129;-31
2023/09/23 06:43:47;;;;;;;3.58;3.00;;;19.00;76.80;;;;;;5012842;28;20137;-31
2023/09/23 06:46:14;;;;;;;2.78;2.40;;;18.60;74.10;;;;;;5012806;28;20148;-31
2023/09/23 06:48:42;;;;;;;3.22;2.80;;;19.60;86.80;;;;;;5012741;28;20137;-31
2023/09/23 06:51:10;;;;;;;3.10;2.67;;;19.30;86.70;;;;;;5012639;28;20053;-31
2023/09/23 06:53:37;;;;;;;3.33;2.60;;;19.30;87.10;;;;;;5014535;28;20041;-31
2023/09/23 06:56:04;;;;;;;3.22;2.70;;;;;;;;;;5028937;28;20133;-31
2023/09/23 06:58:31;;;;;;;3.42;2.90;;;18.40;76.20;;;;;;5012221;28;20150;-31
2023/09/23 07:00:57;;;;;;;3.00;2.60;;;18.90;86.70;;;;;;5012021;28;20129;-31
2023/09/23 07:03:24;;;;;;;4.28;2.80;;;19.10;77.90;;;;;;5012271;28;20534;-31
2023/09/23 07:05:52;;;;;;;3.70;2.90;;;18.20;85.90;;;;;;5012438;28;20364;-31
2023/09/23 07:08:19;;;;;;;3.10;2.70;;;19.70;87.00;;;;;;5012453;28;20132;-31
2023/09/23 07:10:46;;;;;;;3.65;3.00;;;19.70;86.90;;;;;;5012279;28;20468;-31
2023/09/23 07:13:12;;;;;;;3.28;2.63;;;19.80;77.80;;;;;;5011855;28;20046;-31
2023/09/23 07:15:40;;;;;;;3.05;2.67;;;;;;;;;;5012291;28;20125;-31
2023/09/23 07:18:06;;;;;;;3.90;2.70;;;19.70;72.70;;;;;;5012186;28;20054;-30
2023/09/23 07:20:33;;;;;;;3.97;2.95;;;19.50;85.70;;;;;;5012219;28;20137;-31
2023/09/23 07:23:01;;;;;;;3.45;2.53;;;20.60;86.20;;;;;;5012200;28;20077;-31
2023/09/23 07:25:28;;;;;;;4.07;2.70;;;20.70;86.30;;;;;;5012346;28;20578;-31
2023/09/23 07:27:55;;;;;;;4.45;2.80;;;19.90;76.80;;;;;;5012039;28;20503;-31
2023/09/23 07:30:23;;;;;;;4.00;2.72;;;19.80;85.20;;;;;;5011598;28;20430;-31
2023/09/23 07:32:49;;;;;;;3.70;2.90;;;20.40;74.60;;;;;;5011909;28;20125;-31
2023/09/23 07:35:17;;;;;;;4.47;2.60;;;20.00;85.30;;;;;;5011983;28;20129;-31
2023/09/23 07:37:44;;;;;;;3.25;2.78;;;20.00;85.30;;;;;;5011430;28;20049;-31
2023/09/23 07:40:13;;;;;;;3.40;2.80;;;19.60;76.10;;;;;;5011840;28;20558;-31
2023/09/23 07:42:39;;;;;;;4.70;2.50;;;20.40;81.70;;;;;;5026153;28;20132;-31
2023/09/23 07:45:08;;;;;;;3.30;2.75;;;20.90;84.90;;;;;;5027093;28;20156;-31
2023/09/23 07:47:35;;;;;;;3.35;2.70;;;21.50;85.40;;;;;;5012415;28;20050;-31
2023/09/23 07:50:02;;;;;;;3.42;2.78;;;20.30;75.40;;;;;;5011840;28;20196;-31
2023/09/23 07:52:28;;;;;;;2.97;2.55;;;20.20;84.20;;;;;;5011897;28;20064;-31
2023/09/23 07:54:55;;;;;;;3.40;2.78;;;20.20;84.20;;;;;;5024545;28;20129;-31
2023/09/23 07:57:24;;;;;;;4.72;3.08;;;20.70;84.50;;;;;;5031803;28;20522;-31
2023/09/23 07:59:51;;;;;;;3.30;2.78;;;20.40;84.20;;;;;;5030892;28;20124;-32
2023/09/23 08:02:18;;;;;;;3.47;2.75;;;;;;;;;;5021246;28;20475;-31
2023/09/23 08:04:45;;;;;;;3.58;2.90;;;20.80;84.00;;;;;;5009817;28;20100;-31
2023/09/23 08:07:12;;;;;;;3.35;2.80;;;19.50;83.50;;;;;;5006729;28;20080;-31
2023/09/23 08:09:38;;;;;;;3.40;2.72;;;21.20;84.00;;;;;;4998414;28;20061;-31
2023/09/23 08:12:05;;;;;;;2.92;2.58;;;20.60;75.60;;;;;;5000044;28;20548;-31
2023/09/23 08:14:33;;;;;;;3.45;2.95;;;20.70;67.70;;;;;;5031103;28;20563;-31
2023/09/23 08:17:00;;;;;;;2.97;2.60;;;;;;;;;;5034494;28;20096;-30
2023/09/23 08:19:27;;;;;;;3.60;3.10;;;21.70;84.70;;;;;;5014927;28;20138;-31
2023/09/23 08:21:54;;;;;;;3.75;3.30;;;21.80;84.40;;;;;;5015126;28;20108;-31
2023/09/23 08:24:21;;;;;;;3.47;3.03;;;20.60;73.20;;;;;;5015394;28;20124;-31
2023/09/23 08:26:48;;;;;;;3.70;3.15;;;;;;;;;;5014923;28;20054;-31
2023/09/23 08:29:15;;;;;;;3.22;2.90;;;;;;;;;;5015510;28;20133;-30
2023/09/23 08:31:43;;;;;;;4.10;2.95;;;21.00;84.00;;;;;;5014873;28;20133;-31
2023/09/23 08:34:10;;;;;;;4.20;3.40;;;19.90;83.20;;;;;;5014863;28;20042;-31
2023/09/23 08:36:37;;;;;;;4.20;3.53;;;;;;;;;;5014366;28;20541;-30
2023/09/23 08:39:07;;;;;;;3.50;3.08;;;20.80;84.00;;;;;;5015128;28;20045;-31
2023/09/23 08:41:34;;;;;;;3.88;3.35;;;20.70;67.40;;;;;;5015325;28;20050;-31
2023/09/23 08:44:02;;;;;;;3.50;3.13;;;19.80;70.60;;;;;;5015131;28;20086;-31
2023/09/23 08:46:29;;;;;;;4.32;3.30;;;;;;;;;;5014851;28;20141;-31
2023/09/23 08:48:57;;;;;;;3.53;3.22;;;20.20;83.40;;;;;;5014899;28;20129;-31
2023/09/23 08:51:25;;;;;;;4.32;3.55;;;19.80;83.50;;;;;;5014326;28;20466;-31
2023/09/23 08:53:52;;;;;;;6.97;4.05;;;19.90;83.30;;;;;;5018931;28;20121;-31
2023/09/23 08:56:19;;;;;;;5.38;3.50;;;20.70;82.10;;;;;;5030138;28;20056;-31
2023/09/23 08:58:48;;;;;;;3.30;3.00;;;20.80;70.50;;;;;;5013274;28;20045;-31
2023/09/23 09:01:14;;;;;;;4.30;3.40;;;20.60;83.70;;;;;;5012832;28;20045;-31
2023/09/23 09:03:41;;;;;;;3.53;3.20;;;20.80;84.10;;;;;;5010545;28;20138;-31
2023/09/23 09:06:18;;;;;;;4.35;3.10;;;20.60;67.50;;;;;;4995077;28;20149;-31
2023/09/23 09:08:45;;;;;;;3.50;3.10;;;20.70;72.10;;;;;;5010096;28;20049;-31
2023/09/23 09:11:12;;;;;;;3.45;3.15;;;20.40;71.30;;;;;;5013578;28;20566;-31
2023/09/23 09:13:39;;;;;;;3.83;3.10;;;20.40;83.70;;;;;;5014316;28;20045;-31
2023/09/23 09:16:07;;;;;;;4.65;3.20;;;;;;;;;;5014013;28;20133;-30
2023/09/23 09:18:33;;;;;;;4.10;3.38;;;20.30;82.00;;;;;;5012124;28;20060;-31
2023/09/23 09:21:00;;;;;;;5.82;3.53;;;20.20;69.60;;;;;;5010708;28;20117;-30
2023/09/23 09:23:30;;;;;;;3.58;3.13;;;20.30;83.30;;;;;;5010824;28;20546;-31
2023/09/23 09:25:57;;;;;;;3.92;3.42;;;20.30;83.70;;;;;;5013177;28;20082;-31
2023/09/23 09:28:24;;;;;;;4.85;3.50;;;;;;;;;;5012173;28;20495;-31
2023/09/23 09:30:55;;;;;;;6.22;3.33;;;20.40;67.50;;;;;;5013168;28;20128;-31
2023/09/23 09:33:23;;;;;;;4.63;3.15;;;20.30;84.10;;;;;;5013708;28;20490;-31
2023/09/23 09:35:50;;;;;;;3.53;3.22;;;;;;;;;;5003411;28;20146;-28
2023/09/23 09:38:17;;;;;;;4.03;3.40;;;20.30;75.10;;;;;;5002987;28;20054;-29
2023/09/23 09:40:46;;;;;;;4.05;3.35;;;20.70;83.90;;;;;;5004207;28;20057;-29
2023/09/23 09:43:12;;;;;;;4.07;3.40;;;20.60;73.30;;;;;;4997971;28;20578;-28
2023/09/23 09:45:42;;;;;;;4.70;3.88;;;20.50;84.10;;;;;;5001501;28;20442;-29
2023/09/23 09:48:09;;;;;;;5.80;3.20;;;;;;;;;;5010858;28;20049;-30
2023/09/23 09:50:38;;;;;;;3.80;3.40;;;20.60;84.00;;;;;;5007608;28;20125;-29
2023/09/23 09:53:06;;;;;;;3.95;3.42;;;;;;;;;;5013001;28;20057;-31
2023/09/23 09:55:33;;;;;;;3.60;3.30;;;;;;;;;;5031582;28;20049;-30
2023/09/23 09:58:02;;;;;;;5.72;3.42;;;20.70;84.30;;;;;;5033234;28;20449;-29
2023/09/23 10:00:30;;;;;;;4.43;3.40;;;20.50;83.90;;;;;;5033267;28;20103;-29
2023/09/23 10:02:59;;;;;;;4.35;3.22;;;19.90;83.60;;;;;;5033138;28;20096;-29
2023/09/23 10:05:32;;;;;;;3.90;3.35;;;20.00;81.20;;;;;;5017729;28;20060;-29
2023/09/23 10:07:59;;;;;;;5.38;3.28;;;21.00;84.50;;;;;;5013693;28;20512;-28
2023/09/23 10:10:31;;;;;;;4.47;3.25;;;20.30;83.80;;;;;;5013205;28;20132;-29
2023/09/23 10:12:59;;;;;;;5.28;3.17;;;20.40;82.70;;;;;;5013192;28;20050;-29
2023/09/23 10:15:28;;;;;;;3.60;3.30;;;20.20;84.20;;;;;;5013269;28;20056;-29
2023/09/23 10:17:57;;;;;;;3.50;2.90;;;19.30;83.70;;;;;;5013267;28;20136;-29
2023/09/23 10:20:33;;;;;;;3.47;3.17;;;19.30;83.70;;;;;;5012853;28;20046;-28
2023/09/23 10:23:00;;;;;;;4.47;2.85;;;;;;;;;;5013071;28;20042;-31
2023/09/23 10:25:37;;;;;;;5.47;3.13;;;20.20;67.60;;;;;;5012977;28;20134;-29
2023/09/23 10:28:05;;;;;;;4.65;2.90;;;20.20;67.60;;;;;;5012488;28;20046;-31
2023/09/23 10:30:35;;;;;;;3.97;3.25;;;20.30;84.30;;;;;;5013113;28;20137;-29
2023/09/23 10:33:03;;;;;;;3.08;2.78;;;20.80;84.20;;;;;;5013256;28;20049;-29
2023/09/23 10:35:29;;;;;;;3.58;2.80;;;20.10;84.00;;;;;;4993571;28;20129;-28
2023/09/23 10:37:56;;;;;;;3.67;2.80;;;;;;;;;;5010302;28;20137;-30
2023/09/23 10:40:24;;;;;;;3.00;2.70;;;;;;;;;;5012467;28;20134;-31
2023/09/23 10:42:51;;;;;;;4.63;2.85;;;;;;;;;;5013109;28;20129;-31
2023/09/23 10:45:19;;;;;;;3.78;3.08;;;20.70;84.50;;;;;;5013003;28;20058;-29
2023/09/23 10:47:47;;;;;;;5.50;2.75;;;19.90;83.80;;;;;;5012595;28;20130;-28
2023/09/23 10:50:15;;;;;;;3.78;3.00;;;19.90;83.80;;;;;;5012507;28;20125;-29
2023/09/23 10:52:42;;;;;;;3.00;2.70;;;21.00;84.70;;;;;;5012620;28;20077;-29
2023/09/23 10:55:10;;;;;;;3.25;2.63;;;20.10;67.50;;;;;;5023548;28;20121;-30
2023/09/23 10:57:37;;;;;;;4.28;2.90;;;19.80;78.40;;;;;;5012533;28;20104;-29
2023/09/23 11:00:16;;;;;;;3.20;2.63;;;19.80;83.90;;;;;;5012539;28;20221;-29
2023/09/23 11:02:44;;;;;;;3.17;2.60;;;20.20;72.00;;;;;;5010440;28;20454;-29
2023/09/23 11:05:15;;;;;;;3.95;2.58;;;20.10;67.50;;;;;;5002813;28;20423;-29
2023/09/23 11:07:42;;;;;;;3.10;2.72;;;20.10;70.50;;;;;;5012034;28;20046;-29
2023/09/23 11:10:12;;;;;;;4.00;2.47;;;20.40;84.30;;;;;;5012309;28;20049;-29
2023/09/23 11:12:39;;;;;;;3.00;2.40;;;;;;;;;;5012228;28;20510;-29
2023/09/23 11:15:08;;;;;;;4.45;2.30;;;20.00;84.10;;;;;;5012268;28;20552;-29
2023/09/23 11:17:34;;;;;;;5.20;2.35;;;20.10;83.90;;;;;;5012128;28;20561;-29
2023/09/23 11:20:04;;;;;;;3.95;2.45;;;19.30;83.40;;;;;;5010026;28;20128;-28
2023/09/23 11:22:33;;;;;;;3.05;2.20;;;20.90;84.20;;;;;;5011223;28;20104;-32
2023/09/23 11:25:00;;;;;;;2.97;2.38;;;;;;;;;;5008566;28;20064;-31
2023/09/23 11:27:27;;;;;;;2.80;2.30;;;19.90;81.90;;;;;;5011487;28;20139;-31
2023/09/23 11:29:55;;;;;;;3.53;2.53;;;;;;;;;;5011429;28;20129;-30
2023/09/23 11:32:22;;;;;;;2.30;2.10;;;;;;;;;;5008348;28;20073;-30
2023/09/23 11:34:50;;;;;;;4.65;2.28;;;20.00;84.40;;;;;;5011484;28;20117;-32
2023/09/23 11:37:18;;;;;;;4.13;1.90;;;20.40;78.20;;;;;;5011040;28;20096;-31
2023/09/23 11:39:46;;;;;;;3.35;1.92;;;20.50;71.20;;;;;;5011983;28;20053;-31
2023/09/23 11:42:12;;;;;;;3.35;1.75;;;19.50;77.00;;;;;;5015439;28;20136;-31
2023/09/23 11:44:39;;;;;;;3.05;2.17;;;19.70;75.20;;;;;;5015859;28;20124;-31
2023/09/23 11:47:06;;;;;;;3.45;2.20;;;19.60;83.90;;;;;;5014793;28;20133;-31
2023/09/23 11:49:33;;;;;;;3.78;1.92;;;20.60;71.50;;;;;;5015474;28;20046;-31
2023/09/23 11:52:00;;;;;;;2.50;1.92;;;;;;;;;;5014398;28;20133;-32
2023/09/23 11:54:27;;;;;;;4.50;2.10;;;20.40;73.50;;;;;;5015819;28;20077;-32
2023/09/23 11:56:55;;;;;;;3.05;1.80;;;20.20;84.50;;;;;;5014757;28;20046;-31
2023/09/23 11:59:23;;;;;;;4.13;2.03;;;20.30;84.70;;;;;;5015475;28;20144;-32
2023/09/23 12:01:50;;;;;;;4.07;2.35;;;20.50;84.60;;;;;;5014329;28;20054;-31
2023/09/23 12:04:16;;;;;;;2.83;1.80;;;20.10;76.00;;;;;;5013545;28;20045;-31
2023/09/23 12:06:45;;;;;;;2.75;1.90;;;19.70;71.70;;;;;;5014903;28;20140;-29
2023/09/23 12:09:12;;;;;;;2.92;1.90;;;19.70;84.30;;;;;;5015027;28;20053;-29
2023/09/23 12:11:38;;;;;;;3.22;2.00;;;20.40;85.20;;;;;;5015059;28;20049;-29
2023/09/23 12:14:08;;;;;;;2.80;1.90;;;20.00;68.10;;;;;;5014715;28;20085;-29
2023/09/23 12:16:35;;;;;;;2.53;2.03;;;;;;;;;;5012372;28;20124;-29
2023/09/23 12:19:02;;;;;;;3.17;1.80;;;20.40;85.30;;;;;;5015132;28;20053;-29
2023/09/23 12:21:30;;;;;;;2.72;1.80;;;20.00;85.00;;;;;;5014375;28;20436;-29
2023/09/23 12:23:59;;;;;;;3.17;1.98;;;19.90;85.00;;;;;;5013826;28;20045;-29
2023/09/23 12:26:26;;;;;;;3.95;1.90;;;;;;;;;;5015304;28;20056;-31
2023/09/23 12:28:53;;;;;;;3.58;2.13;;;19.90;84.70;;;;;;5015073;28;20136;-29
2023/09/23 12:31:21;;;;;;;2.72;1.90;;;20.00;68.40;;;;;;5014725;28;20050;-30
2023/09/23 12:33:48;;;;;;;2.45;1.80;;;;;;;;;;5015441;28;20144;-31
2023/09/23 12:36:15;;;;;;;2.10;1.52;;;19.00;84.60;;;;;;5014781;28;20128;-29
2023/09/23 12:38:41;;;;;;;2.50;2.13;;;20.10;85.20;;;;;;5014871;28;20276;-29
2023/09/23 12:41:08;;;;;;;2.78;1.75;;;;;;;;;;5014530;28;20081;-29
2023/09/23 12:43:35;;;;;;;3.03;1.92;;;;;;;;;;5015373;28;20128;-29
2023/09/23 12:46:02;;;;;;;2.33;1.75;;;;;;;;;;5015145;28;20140;-31
2023/09/23 12:48:31;;;;;;;2.33;1.83;;;19.70;73.90;;;;;;5003867;28;20073;-29
2023/09/23 12:50:58;;;;;;;2.22;1.60;;;20.10;85.30;;;;;;4994715;28;20061;-29
2023/09/23 12:53:25;;;;;;;3.08;1.85;;;20.50;83.90;;;;;;4995933;28;20133;-29
2023/09/23 12:55:51;;;;;;;5.05;1.90;;;20.30;85.30;;;;;;5022410;28;20136;-29
2023/09/23 12:58:18;;;;;;;3.55;1.83;;;19.70;83.50;;;;;;5015090;28;20128;-28
2023/09/23 13:00:45;;;;;;;5.28;1.83;;;20.20;85.40;;;;;;5014406;28;20061;-29
2023/09/23 13:03:12;;;;;;;2.00;1.65;;;19.80;84.90;;;;;;5013641;28;20145;-31
2023/09/23 13:05:41;;;;;;;2.92;1.63;;;19.50;85.10;;;;;;5014270;28;20053;-31
2023/09/23 13:08:08;;;;;;;5.40;2.10;;;;;;;;;;5014386;28;20136;-30
2023/09/23 13:10:34;;;;;;;3.13;1.60;;;19.60;85.10;;;;;;5011506;28;20058;-32